CheckWX is a tool to help pilots better visualize weather data.  It is not intended as a substitute for an official pre-flight weather briefing.

02:06:51 UTC

SASJ TAF
Gobernador Horacio Guzman International Airport
San Salvador de Jujuy, Argentina
TAF SASJ 152300Z 1600/1624 18015KT 9999 VCTS SCT030 TX30/1615Z TN20/1609Z TEMPO 1601/1607 18015KT 5000 TSRA BKN020 FEW030CB BECMG 1608/1610 21010KT 9999 BKN012

Dec-16@
00:00 UTC

Dec-16 @ 00:00 UTC

Dec-16@
08:00 UTC

Dec-16 @ 08:00 UTC

TAF SASJ 152300Z 1600/1624 18015KT 9999 VCTS SCT030 TX30/1615Z TN20/1609Z
Wind
  • 180° at 15 KTS
Conditions
Area Thunderstorm
Cloud Levels
  • Scattered at 3,000' AGL

Dec-16@
01:00 UTC

Dec-16 @ 01:00 UTC

Dec-16@
07:00 UTC

Dec-16 @ 07:00 UTC

TEMPO 1601/1607 18015KT 5000 TSRA BKN020 FEW030CB

Temporary

Temporary Changes expected for less than half the time period

Wind
  • 180° at 15 KTS
Conditions
Thunderstorm, Rain
Cloud Levels
  • Broken at 2,000' AGL
  • Few at 3,000' AGL

Dec-16@
08:00 UTC

Dec-16 @ 08:00 UTC

Dec-17@
00:00 UTC

Dec-17 @ 00:00 UTC

BECMG 1608/1610 21010KT 9999 BKN012

Becoming

Becoming Conditions expected by Mon, Dec 16, 2019 @ 10:00 UTC

Wind
  • 210° at 10 KTS
Conditions
Area Thunderstorm
Cloud Levels
  • Broken at 1,200' AGL